Time;durP1;ratioP1;P1;durP2;ratioP2;P2;SDS_P1;SDS_P2;PMS_P1;PMS_P2;Temp;Humidity;BMP_temperature;BMP_pressure;BME280_temperature;BME280_humidity;BME280_pressure;Samples;Min_cycle;Max_cycle;Signal;HPM_P1;HPM_P2
2021/05/12 00:00:48;;;;;;;18.80;6.40;;;;;;;16.48;51.16;100348.55;126257;1099;104278;-77
2021/05/12 00:03:17;;;;;;;15.13;6.63;;;;;;;16.46;50.53;100341.48;126375;1099;104277;-78
2021/05/12 00:05:47;;;;;;;14.75;5.50;;;;;;;16.46;51.24;100339.70;126264;1099;104143;-78
2021/05/12 00:08:16;;;;;;;12.40;5.20;;;;;;;16.49;51.09;100331.79;126313;1099;104156;-78
2021/05/12 00:10:46;;;;;;;15.90;5.60;;;;;;;16.49;51.34;100318.55;126247;1099;104150;-79
2021/05/12 00:13:15;;;;;;;18.30;5.83;;;;;;;16.52;51.31;100315.92;126309;1099;104274;-78
2021/05/12 00:15:44;;;;;;;15.67;5.93;;;;;;;16.53;51.23;100317.71;126296;1099;104612;-78
2021/05/12 00:18:18;;;;;;;16.47;5.90;;;;;;;16.56;51.43;100319.48;126262;1099;104142;-79
2021/05/12 00:20:47;;;;;;;18.37;5.87;;;;;;;16.56;50.84;100316.83;126193;1099;104136;-78
2021/05/12 00:23:19;;;;;;;14.07;5.90;;;;;;;16.58;51.53;100323.05;126260;1099;104227;-77
2021/05/12 00:25:49;;;;;;;12.40;5.67;;;;;;;16.57;51.50;100323.91;126314;1099;104153;-78
2021/05/12 00:28:18;;;;;;;10.53;6.03;;;;;;;16.53;51.88;100322.09;126315;1099;104130;-78
2021/05/12 00:30:47;;;;;;;14.63;6.33;;;;;;;16.54;51.48;100321.23;126222;1099;104642;-77
2021/05/12 00:33:17;;;;;;;16.87;6.27;;;;;;;16.54;51.60;100315.94;126310;1099;104130;-78
2021/05/12 00:35:46;;;;;;;13.07;6.40;;;;;;;16.54;51.30;100322.11;126231;1099;104629;-79
2021/05/12 00:38:15;;;;;;;14.57;5.97;;;;;;;16.52;51.52;100326.52;126282;1099;104213;-78
2021/05/12 00:40:44;;;;;;;16.80;7.07;;;;;;;16.50;51.91;100324.72;126159;1099;104696;-79
2021/05/12 00:43:13;;;;;;;16.27;6.63;;;;;;;16.46;52.17;100329.11;126258;1099;104373;-77
2021/05/12 00:45:43;;;;;;;17.40;7.37;;;;;;;16.40;51.72;100320.23;126241;1099;104220;-78
2021/05/12 00:48:12;;;;;;;19.50;7.50;;;;;;;16.34;51.82;100323.70;126302;1099;104249;-78
2021/05/12 00:50:41;;;;;;;16.93;7.23;;;;;;;16.28;51.97;100315.70;126256;1099;105665;-78
2021/05/12 00:53:11;;;;;;;13.70;6.00;;;;;;;16.28;51.99;100313.05;126289;1099;104224;-79
2021/05/12 00:55:40;;;;;;;16.00;5.70;;;;;;;16.26;52.53;100313.03;126287;1099;104162;-77
2021/05/12 00:58:10;;;;;;;14.87;5.23;;;;;;;16.29;52.22;100310.42;126260;1099;104206;-77
2021/05/12 01:00:39;;;;;;;18.03;6.03;;;;;;;16.28;52.27;100307.76;126244;1098;105299;-78
2021/05/12 01:03:09;;;;;;;21.40;6.43;;;;;;;16.27;52.29;100298.06;126296;1099;104160;-78
2021/05/12 01:06:02;;;;;;;14.33;6.97;;;;;;;16.28;52.35;100295.43;126217;1099;104560;-78
2021/05/12 01:08:31;;;;;;;14.80;6.73;;;;;;;16.33;53.30;100287.50;126253;1099;104306;-79
2021/05/12 01:11:00;;;;;;;14.33;7.10;;;;;;;16.35;53.02;100285.77;125287;1099;104149;-78
2021/05/12 01:13:29;;;;;;;14.33;6.77;;;;;;;16.36;53.12;100282.23;126278;1099;101658;-78
2021/05/12 01:15:58;;;;;;;14.73;8.03;;;;;;;16.37;52.64;100276.06;126312;1098;104189;-77
2021/05/12 01:18:28;;;;;;;17.30;9.43;;;;;;;16.35;52.89;100269.88;126304;1099;104201;-78
2021/05/12 01:21:00;;;;;;;19.87;9.57;;;;;;;16.34;52.73;100268.98;126222;1099;104373;-77
2021/05/12 01:23:32;;;;;;;20.90;9.13;;;;;;;16.33;53.54;100267.22;125194;1102;104621;-77
2021/05/12 01:26:04;;;;;;;18.43;8.17;;;;;;;16.28;53.06;100273.34;125195;1102;104143;-78
2021/05/12 01:28:36;;;;;;;17.40;7.87;;;;;;;16.23;53.34;100272.42;125181;1102;104258;-77
2021/05/12 01:31:07;;;;;;;17.27;8.30;;;;;;;16.16;53.20;100260.91;125229;1102;104168;-77
2021/05/12 01:33:37;;;;;;;14.73;7.60;;;;;;;16.13;53.24;100253.81;125115;1102;104626;-78
2021/05/12 01:36:08;;;;;;;17.23;7.03;;;;;;;16.12;53.29;100256.44;125222;1102;104169;-78
2021/05/12 01:38:40;;;;;;;14.33;6.80;;;;;;;16.15;53.56;100254.70;125246;1102;104296;-78
2021/05/12 01:41:09;;;;;;;14.27;6.50;;;;;;;16.14;54.17;100260.89;125224;1102;104152;-77
2021/05/12 01:43:41;;;;;;;14.17;7.00;;;;;;;16.10;54.30;100269.66;125232;1102;104364;-78
2021/05/12 01:46:11;;;;;;;17.60;6.30;;;;;;;16.04;54.06;100264.31;125190;1101;105346;-78
2021/05/12 01:48:43;;;;;;;15.73;6.50;;;;;;;15.96;54.33;100276.59;125236;1101;104172;-78
2021/05/12 01:51:13;;;;;;;16.50;6.63;;;;;;;15.90;54.50;100272.11;125278;1102;104293;-79
2021/05/12 01:53:44;;;;;;;17.15;6.85;;;;;;;15.85;54.35;100280.86;125200;1102;104204;-77
2021/05/12 01:56:14;;;;;;;16.23;7.23;;;;;;;15.78;54.77;100278.17;126176;1099;104216;-78
2021/05/12 01:58:44;;;;;;;17.23;6.90;;;;;;;15.72;54.21;100267.49;126228;1099;104166;-79
2021/05/12 02:01:13;;;;;;;15.50;6.20;;;;;;;15.73;55.12;100263.08;126319;1099;105400;-79
2021/05/12 02:03:43;;;;;;;11.50;6.43;;;;;;;15.75;54.33;100271.91;126244;1099;104201;-77
2021/05/12 02:06:14;;;;;;;17.23;6.10;;;;;;;15.79;54.55;100271.12;126266;1099;104200;-77
2021/05/12 02:08:44;;;;;;;14.53;6.43;;;;;;;15.84;55.00;100276.45;126293;1098;104165;-78
2021/05/12 02:11:13;;;;;;;16.10;6.80;;;;;;;15.88;54.89;100278.24;126256;1099;104140;-78
2021/05/12 02:13:42;;;;;;;15.83;6.97;;;;;;;15.91;54.90;100272.98;126277;1099;104168;-78
2021/05/12 02:16:11;;;;;;;19.13;7.30;;;;;;;15.92;55.19;100269.48;126328;1098;104165;-79
2021/05/12 02:18:41;;;;;;;14.87;5.83;;;;;;;15.92;54.71;100269.48;126302;1099;104191;-78
2021/05/12 02:21:11;;;;;;;14.03;6.70;;;;;;;15.88;54.61;100267.66;126297;1099;104149;-77
2021/05/12 02:23:41;;;;;;;12.50;7.00;;;;;;;15.83;54.74;100270.25;126271;1099;104136;-77
2021/05/12 02:26:10;;;;;;;10.33;6.37;;;;;;;15.80;54.91;100265.84;126196;1099;104223;-79
2021/05/12 02:28:40;;;;;;;16.63;7.40;;;;;;;15.74;55.66;100271.03;126287;1099;104153;-77
2021/05/12 02:31:09;;;;;;;14.70;7.47;;;;;;;15.75;55.42;100269.27;126301;1098;104134;-78
2021/05/12 02:33:39;;;;;;;11.40;6.00;;;;;;;15.75;55.53;100272.81;126206;1099;104179;-78
2021/05/12 02:36:10;;;;;;;11.20;5.83;;;;;;;15.73;55.27;100271.89;126228;1099;104386;-77
2021/05/12 02:38:39;;;;;;;13.00;6.60;;;;;;;15.76;56.18;100274.57;126324;1099;104190;-77
2021/05/12 02:41:09;;;;;;;13.83;6.83;;;;;;;15.75;56.28;100283.40;126296;1099;104226;-77
2021/05/12 02:43:38;;;;;;;11.43;6.40;;;;;;;15.77;55.79;100291.39;126224;1098;104160;-79
2021/05/12 02:46:08;;;;;;;13.43;6.80;;;;;;;15.75;55.59;100293.98;126201;1099;104198;-78
2021/05/12 02:48:39;;;;;;;19.90;7.37;;;;;;;15.75;56.22;100293.07;126226;1099;104153;-79
2021/05/12 02:51:08;;;;;;;14.07;7.80;;;;;;;15.74;55.83;100293.97;126263;1099;104155;-78
2021/05/12 02:53:37;;;;;;;17.43;7.70;;;;;;;15.73;56.23;100289.53;126199;1099;104277;-78
2021/05/12 02:56:07;;;;;;;18.00;8.67;;;;;;;15.70;56.60;100289.50;126270;1099;104140;-77
2021/05/12 02:58:36;;;;;;;18.40;8.90;;;;;;;15.68;55.70;100289.48;126274;1099;103610;-79
2021/05/12 03:01:06;;;;;;;16.77;8.50;;;;;;;15.67;56.54;100294.75;126242;1099;104146;-78
2021/05/12 03:03:36;;;;;;;15.57;7.27;;;;;;;15.64;56.15;100291.21;126261;1099;104188;-79
2021/05/12 03:06:05;;;;;;;14.43;7.47;;;;;;;15.58;56.97;100279.65;126298;1099;104178;-79
2021/05/12 03:08:35;;;;;;;18.20;7.70;;;;;;;15.55;56.11;100287.55;126285;1099;104203;-78
2021/05/12 03:11:05;;;;;;;18.27;7.97;;;;;;;15.57;56.98;100285.83;126286;1099;104232;-78
2021/05/12 03:13:35;;;;;;;17.53;7.37;;;;;;;15.63;56.80;100288.55;126199;1099;104366;-78
2021/05/12 03:16:05;;;;;;;19.87;7.57;;;;;;;15.68;57.06;100283.31;126269;1099;104204;-77
2021/05/12 03:18:34;;;;;;;17.87;7.37;;;;;;;15.69;57.11;100285.97;126224;1099;104284;-78
2021/05/12 03:21:04;;;;;;;18.87;7.67;;;;;;;15.72;56.37;100293.03;126255;1099;104293;-78
2021/05/12 03:23:33;;;;;;;21.53;8.00;;;;;;;15.70;56.69;100287.73;126200;1099;104442;-78
2021/05/12 03:26:03;;;;;;;15.03;7.03;;;;;;;15.71;57.38;100297.45;126250;1099;104216;-78
2021/05/12 03:28:51;;;;;;;13.57;6.67;;;;;;;15.69;56.78;100299.20;126255;1099;104143;-79
2021/05/12 03:31:21;;;;;;;14.00;6.47;;;;;;;15.66;57.54;100303.55;126259;1099;104143;-77
2021/05/12 03:33:55;;;;;;;14.10;6.90;;;;;;;15.61;57.04;100300.84;126145;1099;104146;-78
2021/05/12 03:36:24;;;;;;;18.47;8.10;;;;;;;15.58;57.21;100303.45;126303;1099;104310;-78
2021/05/12 03:38:54;;;;;;;16.87;7.70;;;;;;;15.54;56.69;100304.30;126239;1097;105044;-77
2021/05/12 03:41:24;;;;;;;16.23;7.40;;;;;;;15.46;57.46;100310.38;126070;1099;102276;-78
2021/05/12 03:43:53;;;;;;;13.97;7.30;;;;;;;15.36;58.04;100308.47;125999;1099;104166;-78
2021/05/12 03:46:22;;;;;;;14.00;6.93;;;;;;;15.22;58.00;100303.02;126113;1099;104214;-77
2021/05/12 03:48:51;;;;;;;14.57;6.60;;;;;;;15.16;57.65;100317.89;126090;1099;104172;-77
2021/05/12 03:51:20;;;;;;;13.07;6.00;;;;;;;15.17;57.81;100304.69;126049;1099;104201;-77
2021/05/12 03:53:49;;;;;;;14.13;6.63;;;;;;;15.17;57.63;100303.81;126122;1099;104278;-77
2021/05/12 03:56:18;;;;;;;22.30;7.20;;;;;;;15.21;57.74;100295.07;126131;1099;110248;-79
2021/05/12 03:59:03;;;;;;;17.33;6.50;;;;;;;15.26;57.55;100291.60;126199;1099;104213;-77
2021/05/12 04:01:31;;;;;;;;;;;;;;;15.29;58.54;100282.84;126133;1099;104223;-77
2021/05/12 04:04:05;;;;;;;21.63;7.13;;;;;;;15.31;58.33;100293.43;126269;1098;104159;-77
2021/05/12 04:06:37;;;;;;;18.87;7.50;;;;;;;15.30;57.98;100299.58;126208;1099;104165;-78
2021/05/12 04:09:06;;;;;;;18.23;7.03;;;;;;;15.25;58.12;100303.06;126312;1099;104265;-78
2021/05/12 04:11:36;;;;;;;14.60;6.27;;;;;;;15.22;57.75;100305.67;126173;1099;104239;-77
2021/05/12 04:14:07;;;;;;;14.63;6.20;;;;;;;15.23;58.01;100303.91;126273;1099;104239;-77
2021/05/12 04:16:37;;;;;;;14.50;6.35;;;;;;;15.28;57.78;100297.78;126135;1099;104210;-78
2021/05/12 04:19:07;;;;;;;15.47;6.37;;;;;;;15.36;58.07;100297.89;126098;1099;104143;-78
2021/05/12 04:21:41;;;;;;;11.47;5.90;;;;;;;15.40;58.31;100296.20;126162;1099;104233;-76
2021/05/12 04:24:11;;;;;;;14.50;6.57;;;;;;;15.43;57.79;100299.76;126224;1099;104136;-77
2021/05/12 04:26:41;;;;;;;20.15;6.80;;;;;;;15.41;57.40;100308.52;125990;1099;104299;-77
2021/05/12 04:29:10;;;;;;;18.77;6.87;;;;;;;15.41;57.88;100303.23;126122;1099;104201;-77
2021/05/12 04:31:39;;;;;;;14.27;6.57;;;;;;;15.44;58.24;100303.28;125965;1099;104238;-77
2021/05/12 04:34:12;;;;;;;17.33;6.70;;;;;;;15.48;57.59;100297.17;125954;1099;104213;-77
2021/05/12 04:36:41;;;;;;;22.10;6.40;;;;;;;15.54;58.26;100297.25;126097;1099;104214;-77
2021/05/12 04:39:11;;;;;;;16.70;6.50;;;;;;;15.59;57.95;100297.30;126143;1099;104169;-77
2021/05/12 04:41:40;;;;;;;14.07;6.00;;;;;;;15.63;57.56;100296.48;126032;1099;104191;-78
2021/05/12 04:44:09;;;;;;;16.97;6.07;;;;;;;15.67;58.00;100300.92;126217;1099;104236;-77
2021/05/12 04:46:40;;;;;;;16.93;7.00;;;;;;;15.72;57.86;100293.95;126050;1099;104146;-76
2021/05/12 04:49:10;;;;;;;16.60;6.57;;;;;;;15.75;58.44;100288.69;126030;1099;104332;-78
2021/05/12 04:51:39;;;;;;;15.53;6.97;;;;;;;15.78;58.23;100288.76;126184;1098;104136;-78
2021/05/12 04:54:10;;;;;;;17.27;7.40;;;;;;;15.79;57.66;100289.63;125209;1099;104287;-78
2021/05/12 04:56:52;;;;;;;16.17;6.83;;;;;;;15.83;57.47;100293.19;126092;1099;102497;-76
2021/05/12 04:59:30;;;;;;;17.63;8.43;;;;;;;15.80;58.30;100286.12;126058;1099;104178;-76
2021/05/12 05:02:00;;;;;;;14.90;6.87;;;;;;;15.80;57.64;100287.00;125851;1099;104207;-77
2021/05/12 05:04:36;;;;;;;14.00;6.87;;;;;;;15.87;58.26;100290.59;125865;1099;104934;-77
2021/05/12 05:07:05;;;;;;;18.50;7.20;;;;;;;15.99;57.55;100287.20;125729;1099;104579;-77
2021/05/12 05:09:37;;;;;;;13.27;6.00;;;;;;;16.11;57.36;100292.62;125866;1099;104174;-76
2021/05/12 05:12:07;;;;;;;16.73;7.70;;;;;;;16.15;57.90;100294.41;126048;1099;104147;-76
2021/05/12 05:14:36;;;;;;;20.85;8.10;;;;;;;16.20;57.94;100282.98;126114;1099;104181;-76
2021/05/12 05:17:06;;;;;;;14.70;7.80;;;;;;;16.21;57.70;100292.71;125951;1099;104169;-77
2021/05/12 05:19:36;;;;;;;16.90;8.67;;;;;;;16.20;57.18;100298.87;125889;1099;104162;-76
2021/05/12 05:22:07;;;;;;;19.33;9.53;;;;;;;16.20;57.53;100298.87;126004;1099;104137;-77
2021/05/12 05:24:37;;;;;;;17.63;9.17;;;;;;;16.19;57.52;100308.58;126094;1099;104210;-78
2021/05/12 05:27:06;;;;;;;20.30;9.10;;;;;;;16.27;58.07;100300.71;126106;1098;104188;-77
2021/05/12 05:29:38;;;;;;;14.47;7.93;;;;;;;16.40;57.65;100305.22;126101;1099;104163;-76
2021/05/12 05:32:09;;;;;;;17.90;7.43;;;;;;;16.50;57.96;100301.80;125830;1099;104261;-78
2021/05/12 05:34:56;;;;;;;15.77;8.13;;;;;;;16.66;58.16;100299.27;125813;1099;104300;-78
2021/05/12 05:37:39;;;;;;;17.30;8.30;;;;;;;16.81;57.88;100296.73;125756;1099;105640;-78
2021/05/12 05:40:28;;;;;;;16.53;8.17;;;;;;;16.93;57.99;100287.11;125861;1099;104162;-75
2021/05/12 05:43:19;;;;;;;19.43;7.83;;;;;;;17.02;57.39;100295.13;125777;1099;104200;-76
2021/05/12 05:46:10;;;;;;;15.60;7.10;;;;;;;17.00;57.42;100286.25;125777;1098;104296;-77
2021/05/12 05:48:56;;;;;;;18.70;6.50;;;;;;;16.99;57.09;100284.50;125680;1099;104157;-79
2021/05/12 05:51:39;;;;;;;19.50;6.77;;;;;;;16.98;56.97;100286.25;126109;1099;104184;-76
2021/05/12 05:54:28;;;;;;;14.90;6.57;;;;;;;17.01;57.04;100294.22;125813;1099;104181;-76
2021/05/12 05:57:18;;;;;;;15.97;6.80;;;;;;;16.97;56.77;100305.70;125780;1099;104191;-78
2021/05/12 06:00:08;;;;;;;12.47;6.30;;;;;;;16.98;56.85;100301.27;125706;1099;104245;-75
2021/05/12 06:02:49;;;;;;;14.97;6.40;;;;;;;17.07;57.04;100306.63;125800;1098;104181;-76
2021/05/12 06:05:36;;;;;;;12.67;5.53;;;;;;;17.19;56.78;100314.66;125810;1099;102212;-75
2021/05/12 06:08:19;;;;;;;13.43;4.90;;;;;;;17.32;56.73;100317.38;125984;1099;104140;-75
2021/05/12 06:11:10;;;;;;;10.57;5.10;;;;;;;17.39;56.68;100304.16;125873;1099;104245;-75
2021/05/12 06:13:57;;;;;;;8.97;4.80;;;;;;;17.48;56.27;100305.95;125838;1099;104168;-75
2021/05/12 06:16:47;;;;;;;11.93;4.83;;;;;;;17.36;55.88;100296.19;125936;1099;104134;-76
2021/05/12 06:19:50;;;;;;;12.40;4.63;;;;;;;17.49;56.12;100296.25;125781;1099;109427;-77
2021/05/12 06:22:45;;;;;;;11.83;5.20;;;;;;;17.63;56.23;100297.17;125765;1099;104191;-75
2021/05/12 06:25:28;;;;;;;11.37;5.33;;;;;;;17.60;55.20;100300.69;125695;1099;104245;-77
2021/05/12 06:28:23;;;;;;;11.10;5.10;;;;;;;17.60;55.48;100302.47;125599;1099;104326;-77
2021/05/12 06:31:08;;;;;;;12.07;5.73;;;;;;;17.69;55.82;100307.81;125637;1098;104220;-77
2021/05/12 06:34:20;;;;;;;8.17;4.47;;;;;;;17.85;55.68;100315.83;125768;1099;104166;-77
2021/05/12 06:37:07;;;;;;;7.80;5.00;;;;;;;17.95;55.53;100314.98;125724;1099;104168;-78
2021/05/12 06:39:58;;;;;;;11.67;4.90;;;;;;;18.07;55.00;100309.70;125876;1099;102922;-77
2021/05/12 06:42:30;;;;;;;10.33;5.03;;;;;;;18.06;54.85;100301.73;125648;1098;104335;-76
2021/05/12 06:45:03;;;;;;;18.17;5.57;;;;;;;18.06;54.93;100304.39;125782;1099;103964;-75
2021/05/12 06:47:34;;;;;;;16.60;5.40;;;;;;;18.07;55.10;100298.20;125872;1098;104217;-77
2021/05/12 06:50:07;;;;;;;11.13;5.10;;;;;;;18.13;54.97;100304.41;125851;1099;104142;-77
2021/05/12 06:52:37;;;;;;;10.90;4.90;;;;;;;18.19;54.92;100300.89;125908;1099;104239;-76
2021/05/12 06:55:09;;;;;;;11.53;5.00;;;;;;;18.27;54.36;100307.08;125751;1099;104296;-77
2021/05/12 06:57:41;;;;;;;10.87;5.30;;;;;;;18.29;54.92;100301.77;125960;1099;104155;-76
2021/05/12 07:00:13;;;;;;;13.97;5.40;;;;;;;18.30;54.56;100306.21;125969;1099;104736;-76
2021/05/12 07:02:51;;;;;;;15.60;6.07;;;;;;;18.20;54.74;100320.34;125916;1098;104787;-79
2021/05/12 07:05:22;;;;;;;10.17;5.80;;;;;;;18.03;54.49;100320.31;125925;1099;104216;-76
2021/05/12 07:07:53;;;;;;;10.43;5.50;;;;;;;17.85;54.17;100327.31;125903;1099;104363;-77
2021/05/12 07:10:24;;;;;;;12.70;4.93;;;;;;;17.71;54.34;100323.73;125873;1099;104238;-76
2021/05/12 07:12:55;;;;;;;9.10;4.87;;;;;;;17.50;54.01;100335.13;125958;1099;104149;-77
2021/05/12 07:15:26;;;;;;;12.07;5.10;;;;;;;17.38;54.00;100334.20;125837;1099;104157;-77
2021/05/12 07:17:57;;;;;;;11.50;4.60;;;;;;;17.26;53.82;100326.17;125785;1099;104214;-77
2021/05/12 07:20:28;;;;;;;12.20;4.13;;;;;;;17.17;53.45;100327.03;125641;1099;104450;-78
2021/05/12 07:23:05;;;;;;;10.43;3.80;;;;;;;17.11;53.13;100331.39;125659;1099;104268;-77
2021/05/12 07:25:37;;;;;;;11.47;3.60;;;;;;;17.10;53.27;100330.51;125755;1099;104230;-78
2021/05/12 07:28:11;;;;;;;8.20;3.27;;;;;;;17.09;53.36;100352.59;125808;1099;104209;-79
2021/05/12 07:30:43;;;;;;;12.93;3.13;;;;;;;17.01;52.92;100349.00;125769;1099;104634;-77
2021/05/12 07:33:14;;;;;;;5.97;3.30;;;;;;;16.88;52.34;100350.69;125023;1099;102212;-77
2021/05/12 07:35:48;;;;;;;7.47;3.30;;;;;;;16.74;51.75;100353.19;125141;1100;104134;-82
2021/05/12 07:38:19;;;;;;;6.83;3.27;;;;;;;16.63;52.03;100344.28;125844;1099;102239;-79
2021/05/12 07:40:48;;;;;;;7.33;3.60;;;;;;;16.60;52.08;100355.72;125731;1099;104222;-79
2021/05/12 07:43:21;;;;;;;12.43;3.47;;;;;;;16.56;52.10;100360.98;125060;1099;104274;-79
2021/05/12 07:45:52;;;;;;;7.57;3.20;;;;;;;16.53;52.16;100352.14;125735;1098;104367;-78
2021/05/12 07:48:25;;;;;;;8.47;3.50;;;;;;;16.60;51.74;100346.91;125857;1099;104216;-77
2021/05/12 07:50:56;;;;;;;8.20;3.33;;;;;;;16.66;51.18;100354.90;125767;1099;104220;-78
2021/05/12 07:53:28;;;;;;;8.50;3.57;;;;;;;16.70;51.33;100352.30;125891;1099;104178;-77
2021/05/12 07:55:57;;;;;;;10.03;3.57;;;;;;;16.78;51.25;100362.05;125872;1099;104162;-75
2021/05/12 07:58:28;;;;;;;10.53;3.57;;;;;;;16.85;51.11;100356.81;125682;1099;104296;-77
2021/05/12 08:01:05;;;;;;;6.10;3.10;;;;;;;16.91;50.31;100358.66;125698;1099;104194;-79
2021/05/12 08:03:36;;;;;;;8.03;2.90;;;;;;;16.86;49.26;100361.27;125619;1099;104165;-78
2021/05/12 08:06:10;;;;;;;6.97;2.63;;;;;;;16.86;49.86;100363.02;126027;1099;104613;-78
2021/05/12 08:08:41;;;;;;;9.40;2.80;;;;;;;16.89;49.41;100356.00;125927;1099;104306;-78
2021/05/12 08:11:14;;;;;;;8.87;3.17;;;;;;;16.94;49.61;100363.98;125498;1099;104230;-78
2021/05/12 08:13:46;;;;;;;8.50;3.07;;;;;;;17.07;49.66;100357.88;124932;1102;104329;-76
2021/05/12 08:16:17;;;;;;;6.53;2.80;;;;;;;17.19;50.15;100351.78;124970;1102;104198;-77
2021/05/12 08:18:48;;;;;;;9.17;3.40;;;;;;;17.34;49.34;100351.00;124943;1102;104150;-77
2021/05/12 08:21:21;;;;;;;8.50;3.10;;;;;;;17.42;49.44;100353.66;124936;1102;104302;-77
2021/05/12 08:23:57;;;;;;;7.60;3.00;;;;;;;17.48;49.02;100352.81;125018;1100;104453;-76
2021/05/12 08:26:26;;;;;;;6.43;3.10;;;;;;;17.56;49.02;100349.34;125081;1102;104165;-78
2021/05/12 08:28:58;;;;;;;4.73;2.90;;;;;;;17.49;48.08;100354.60;125055;1102;104158;-76
2021/05/12 08:31:29;;;;;;;9.40;2.60;;;;;;;17.32;48.49;100357.16;125114;1102;104182;-75
2021/05/12 08:34:00;;;;;;;5.57;2.97;;;;;;;17.15;48.32;100355.28;125127;1102;104386;-75
2021/05/12 08:36:30;;;;;;;3.93;2.50;;;;;;;17.09;48.85;100355.23;125149;1102;104457;-76
2021/05/12 08:39:00;;;;;;;5.80;2.65;;;;;;;17.02;48.14;100350.79;125121;1102;104277;-76
2021/05/12 08:41:32;;;;;;;5.03;2.40;;;;;;;16.94;47.98;100349.83;125037;1102;104025;-76
2021/05/12 08:44:06;;;;;;;3.83;2.87;;;;;;;16.77;48.31;100363.81;125086;1102;105215;-77
2021/05/12 08:46:39;;;;;;;7.97;3.10;;;;;;;16.57;48.80;100355.70;125279;1098;104197;-76
2021/05/12 08:49:10;;;;;;;5.03;3.13;;;;;;;16.34;48.26;100359.00;125047;1099;104292;-77
2021/05/12 08:51:42;;;;;;;4.40;2.90;;;;;;;16.16;48.62;100354.42;125838;1099;104124;-77
2021/05/12 08:54:15;;;;;;;8.20;3.43;;;;;;;16.00;49.51;100357.77;125162;1099;104172;-77
2021/05/12 08:56:45;;;;;;;6.77;3.37;;;;;;;15.90;49.71;100359.42;125178;1099;104271;-78
2021/05/12 08:59:17;;;;;;;9.13;3.60;;;;;;;15.78;49.82;100357.54;125981;1099;104207;-77
2021/05/12 09:01:48;;;;;;;5.73;3.30;;;;;;;15.61;48.79;100359.03;125162;1099;104332;-79
2021/05/12 09:04:18;;;;;;;7.40;4.20;;;;;;;15.52;49.53;100356.27;126065;1099;104176;-78
2021/05/12 09:06:50;;;;;;;7.30;3.53;;;;;;;15.45;49.31;100360.59;126025;1099;104201;-78
2021/05/12 09:09:19;;;;;;;9.90;3.63;;;;;;;15.42;49.49;100353.49;125942;1099;104197;-78
2021/05/12 09:11:51;;;;;;;8.33;4.07;;;;;;;15.40;49.78;100354.36;125685;1099;105510;-79
2021/05/12 09:14:33;;;;;;;8.37;3.87;;;;;;;15.37;49.73;100355.20;125125;1099;104290;-78
2021/05/12 09:17:03;;;;;;;6.07;3.80;;;;;;;15.30;49.81;100342.75;125672;1099;104194;-78
2021/05/12 09:19:32;;;;;;;8.33;3.87;;;;;;;15.25;49.76;100349.73;125673;1099;104239;-78
2021/05/12 09:22:05;;;;;;;9.57;3.90;;;;;;;15.24;50.68;100345.34;125907;1099;104165;-77
2021/05/12 09:24:36;;;;;;;9.53;4.13;;;;;;;15.23;50.24;100344.42;125757;1099;104204;-78
2021/05/12 09:27:10;;;;;;;8.03;3.67;;;;;;;15.24;50.93;100340.92;125683;1099;105128;-77
2021/05/12 09:29:41;;;;;;;;;;;;;;;15.34;51.05;100339.29;125835;1099;104144;-76
2021/05/12 09:32:13;;;;;;;10.00;3.80;;;;;;;15.42;51.10;100342.91;125782;1099;104225;-76
2021/05/12 09:34:58;;;;;;;12.60;4.17;;;;;;;15.51;50.73;100336.00;125800;1099;104133;-75
2021/05/12 09:37:31;;;;;;;8.97;4.57;;;;;;;15.60;51.24;100328.18;125762;1099;104165;-78
2021/05/12 09:40:04;;;;;;;11.17;4.30;;;;;;;15.70;51.34;100324.76;125672;1100;102052;-77
2021/05/12 09:43:00;;;;;;;10.27;4.50;;;;;;;15.87;51.06;100319.70;125770;1099;104275;-77
2021/05/12 09:45:38;;;;;;;10.47;4.40;;;;;;;16.08;51.16;100339.33;125618;1099;104213;-77
2021/05/12 09:48:08;;;;;;;16.63;4.47;;;;;;;16.28;51.70;100334.23;125665;1099;104226;-78
2021/05/12 09:50:39;;;;;;;9.60;4.47;;;;;;;16.40;51.09;100337.00;125627;1099;102291;-77
2021/05/12 09:53:12;;;;;;;8.13;3.90;;;;;;;16.49;51.53;100337.09;125702;1099;104153;-78
2021/05/12 09:55:45;;;;;;;9.07;4.40;;;;;;;16.50;51.51;100322.98;125799;1099;104194;-80
2021/05/12 09:58:17;;;;;;;12.20;4.80;;;;;;;16.62;51.54;100326.59;125730;1099;104204;-78
2021/05/12 10:03:46;;;;;;;12.13;4.77;;;;;;;17.05;51.66;100330.48;125649;1099;105142;-76
2021/05/12 10:06:27;;;;;;;8.58;4.50;;;;;;;17.22;51.69;100333.23;125663;1099;104169;-77
2021/05/12 10:09:01;;;;;;;10.10;4.67;;;;;;;17.42;51.27;100337.75;125502;1099;104159;-78
2021/05/12 10:11:35;;;;;;;7.23;4.53;;;;;;;17.58;51.52;100338.73;124922;1099;104246;-78
2021/05/12 10:14:08;;;;;;;10.47;4.67;;;;;;;17.80;51.39;100339.70;125548;1099;102774;-78
2021/05/12 10:16:38;;;;;;;7.93;4.60;;;;;;;17.93;51.33;100336.22;125489;1099;104259;-82
2021/05/12 10:19:47;;;;;;;10.47;4.57;;;;;;;18.00;51.24;100337.14;125416;1099;103805;-79
2021/05/12 10:22:38;;;;;;;9.03;4.50;;;;;;;18.06;51.03;100336.25;124916;1102;104393;-78
2021/05/12 10:25:13;;;;;;;10.90;4.90;;;;;;;18.09;50.88;100330.95;124913;1102;104201;-78
2021/05/12 10:27:44;;;;;;;8.45;4.47;;;;;;;18.20;50.92;100326.56;125024;1102;104130;-78
2021/05/12 10:30:17;;;;;;;13.67;4.90;;;;;;;18.24;51.06;100325.67;124974;1102;102417;-77
2021/05/12 10:32:51;;;;;;;11.43;4.97;;;;;;;18.32;50.75;100320.37;125293;1102;104568;-79
2021/05/12 10:35:32;;;;;;;10.45;4.90;;;;;;;18.43;50.92;100315.06;124905;1102;104351;-79
2021/05/12 10:38:04;;;;;;;9.50;5.03;;;;;;;18.45;50.66;100310.63;125013;1100;104242;-78
2021/05/12 10:40:40;;;;;;;12.10;5.23;;;;;;;18.50;50.57;100316.85;125047;1099;104159;-79
2021/05/12 10:43:20;;;;;;;8.73;4.43;;;;;;;18.60;50.56;100310.63;125739;1099;104297;-78
2021/05/12 10:46:03;;;;;;;12.57;4.57;;;;;;;18.67;49.79;100308.88;125059;1099;104367;-79
2021/05/12 10:48:46;;;;;;;12.25;5.10;;;;;;;18.72;49.91;100301.78;125778;1099;104253;-78
2021/05/12 10:51:47;;;;;;;9.03;4.70;;;;;;;18.82;49.42;100306.21;125727;1099;104144;-79
2021/05/12 10:54:39;;;;;;;10.07;4.50;;;;;;;18.95;49.69;100301.79;125604;1099;104377;-78
2021/05/12 10:57:33;;;;;;;11.77;5.17;;;;;;;19.02;49.32;100303.53;125628;1099;104194;-78
2021/05/12 11:00:06;;;;;;;10.43;4.57;;;;;;;19.04;49.44;100299.11;125148;1099;104525;-79
2021/05/12 11:03:03;;;;;;;9.30;4.70;;;;;;;18.99;49.17;100295.55;125617;1099;104153;-79
2021/05/12 11:06:02;;;;;;;12.00;5.00;;;;;;;18.90;48.74;100292.95;125540;1099;104207;-78
2021/05/12 11:08:34;;;;;;;9.97;4.67;;;;;;;18.87;48.92;100284.97;125676;1099;104158;-77
2021/05/12 11:11:16;;;;;;;12.27;4.67;;;;;;;18.78;48.83;100288.48;125814;1097;104216;-79
2021/05/12 11:13:46;;;;;;;7.93;4.40;;;;;;;18.73;48.59;100278.73;125841;1099;104235;-77
2021/05/12 11:16:23;;;;;;;9.63;4.43;;;;;;;18.69;48.58;100276.08;125796;1099;104300;-75
2021/05/12 11:18:54;;;;;;;9.87;4.60;;;;;;;18.62;48.23;100274.34;125718;1099;104328;-76
2021/05/12 11:21:35;;;;;;;9.97;5.03;;;;;;;18.54;48.11;100278.75;125710;1099;104176;-77
2021/05/12 11:24:20;;;;;;;12.50;5.53;;;;;;;18.46;48.21;100275.22;125687;1099;104184;-77
2021/05/12 11:27:21;;;;;;;13.50;5.03;;;;;;;18.47;48.44;100269.91;125713;1099;108320;-76
2021/05/12 11:32:38;;;;;;;12.97;5.20;;;;;;;18.36;48.38;100271.69;125714;1099;104220;-75
2021/05/12 11:35:12;;;;;;;15.50;4.93;;;;;;;18.35;47.86;100271.69;125676;1099;104165;-75
2021/05/12 11:37:44;;;;;;;11.53;4.53;;;;;;;18.44;47.86;100271.69;126634;1099;102992;-77
2021/05/12 11:40:14;;;;;;;10.07;4.30;;;;;;;18.44;47.84;100266.38;125736;1099;104233;-76